Time;durP1;ratioP1;P1;durP2;ratioP2;P2;SDS_P1;SDS_P2;PMS_P1;PMS_P2;Temp;Humidity;BMP_temperature;BMP_pressure;BME280_temperature;BME280_humidity;BME280_pressure;Samples;Min_cycle;Max_cycle;Signal;HPM_P1;HPM_P2
2022/05/14 00:01:02;;;;;;;5.13;2.38;;;;;;;17.02;43.18;100512.69;4976204;28;97121;-91
2022/05/14 00:03:29;;;;;;;7.63;3.15;;;;;;;16.91;43.38;100514.16;4956329;28;100409;-90
2022/05/14 00:05:57;;;;;;;10.25;3.70;;;;;;;16.71;44.00;100501.16;4962669;28;101624;-91
2022/05/14 00:08:24;;;;;;;5.25;2.67;;;;;;;16.82;43.51;100504.06;4994439;28;96717;-91
2022/05/14 00:13:35;;;;;;;6.70;3.63;;;;;;;16.79;43.92;100516.66;4994767;28;98395;-89
2022/05/14 00:16:01;;;;;;;10.77;4.43;;;;;;;16.62;44.23;100521.06;4978527;28;97988;-90
2022/05/14 00:18:28;;;;;;;14.02;4.07;;;;;;;16.57;44.44;100498.41;4994482;28;97217;-90
2022/05/14 00:20:53;;;;;;;8.10;3.95;;;;;;;16.61;44.51;100523.78;4995503;28;96912;-90
2022/05/14 00:23:19;;;;;;;6.43;3.92;;;;;;;16.63;44.34;100519.25;4994974;28;98438;-91
2022/05/14 00:25:45;;;;;;;8.95;3.65;;;;;;;16.65;44.55;100526.19;4975143;28;99837;-91
2022/05/14 00:28:11;;;;;;;10.13;3.97;;;;;;;16.52;44.04;100490.72;4997243;28;97266;-90
2022/05/14 00:30:37;;;;;;;7.53;4.40;;;;;;;16.60;44.69;100530.03;4996550;28;96053;-85
2022/05/14 00:33:04;;;;;;;11.27;3.95;;;;;;;16.47;44.76;100514.84;4979247;28;97868;-90
2022/05/14 00:35:30;;;;;;;6.47;3.60;;;;;;;16.36;44.90;100501.31;4967448;28;100786;-90
2022/05/14 00:37:55;;;;;;;7.18;2.80;;;;;;;16.47;44.63;100537.81;4958775;28;98333;-85
2022/05/14 00:40:31;;;;;;;10.20;2.63;;;;;;;16.53;44.67;100538.34;4995219;28;98256;-91
2022/05/14 00:42:57;;;;;;;6.63;2.88;;;;;;;16.51;44.19;100526.94;4982322;28;101239;-89
2022/05/14 00:45:23;;;;;;;7.07;3.00;;;;;;;16.40;44.46;100515.25;4994210;28;96908;-90
2022/05/14 00:47:51;;;;;;;8.48;2.60;;;;;;;16.44;44.45;100516.81;4974805;28;96819;-91
2022/05/14 00:50:49;;;;;;;8.35;2.97;;;;;;;16.47;44.74;100537.81;4976409;28;96877;-91
2022/05/14 00:53:22;;;;;;;8.10;3.00;;;;;;;16.36;45.23;100540.22;4960687;28;101242;-91
2022/05/14 00:55:50;;;;;;;11.15;2.60;;;;;;;16.29;45.17;100542.34;4974342;28;102586;-91
2022/05/14 00:58:40;;;;;;;8.63;2.85;;;;;;;16.25;45.00;100531.03;4987642;28;96798;-90
2022/05/14 01:01:07;;;;;;;7.32;2.90;;;;;;;16.17;45.23;100522.63;4960939;28;97304;-90
2022/05/14 01:03:33;;;;;;;5.57;2.58;;;;;;;16.17;45.19;100527.94;4963864;28;99566;-88
2022/05/14 01:06:00;;;;;;;7.30;2.30;;;;;;;16.25;45.21;100536.34;4977387;28;100303;-90
2022/05/14 01:08:27;;;;;;;6.75;2.60;;;;;;;16.19;45.28;100523.41;4993737;28;96942;-84
2022/05/14 01:10:52;;;;;;;7.35;2.25;;;;;;;16.18;45.03;100502.34;4977831;28;96909;-91
2022/05/14 01:13:18;;;;;;;8.82;3.15;;;;;;;16.38;44.88;100525.09;4960314;28;100247;-91
2022/05/14 01:15:50;;;;;;;6.03;2.50;;;;;;;16.16;45.68;100520.94;4977524;28;100876;-91
2022/05/14 01:18:22;;;;;;;9.45;2.42;;;;;;;16.03;45.56;100514.63;5002963;28;96549;-91
2022/05/14 01:21:24;;;;;;;7.93;3.00;;;;;;;16.07;45.90;100529.38;4980959;28;96671;-89
2022/05/14 01:27:08;;;;;;;6.47;2.60;;;;;;;15.89;45.93;100506.56;4976318;28;101754;-89
2022/05/14 01:29:34;;;;;;;6.05;2.70;;;;;;;15.82;46.21;100517.47;4960066;28;97137;-90
2022/05/14 01:32:04;;;;;;;5.90;2.20;;;;;;;16.04;45.90;100511.03;4963520;28;96781;-91
2022/05/14 01:34:33;;;;;;;3.83;1.90;;;;;;;16.04;45.88;100509.22;4973716;28;100722;-91
2022/05/14 01:37:00;;;;;;;6.13;2.50;;;;;;;16.05;46.00;100504.78;4957495;28;100176;-91
2022/05/14 01:39:25;;;;;;;5.55;2.42;;;;;;;15.96;46.34;100508.78;4973740;28;96883;-85
2022/05/14 01:41:51;;;;;;;5.55;2.35;;;;;;;15.89;46.34;100501.25;4973742;28;96863;-91
2022/05/14 01:44:18;;;;;;;9.32;3.08;;;;;;;15.80;46.63;100492.00;4972853;28;101344;-91
2022/05/14 01:46:43;;;;;;;6.85;2.20;;;;;;;15.88;46.47;100505.66;4973240;28;101554;-91
2022/05/14 01:49:09;;;;;;;6.55;2.40;;;;;;;15.97;46.64;100509.63;4975942;28;96805;-87
2022/05/14 01:51:35;;;;;;;7.28;2.28;;;;;;;15.87;47.06;100514.56;4960128;28;96911;-91
2022/05/14 01:54:03;;;;;;;8.90;2.50;;;;;;;15.86;46.77;100493.47;4976732;28;100820;-88
2022/05/14 01:56:29;;;;;;;8.82;2.53;;;;;;;15.78;46.96;100501.81;4960225;28;100648;-91
2022/05/14 01:58:55;;;;;;;9.40;2.75;;;;;;;15.69;47.43;100502.31;4976959;28;96791;-91
2022/05/14 02:01:25;;;;;;;9.25;2.83;;;;;;;15.64;47.13;100478.69;4957182;28;96648;-91
2022/05/14 02:04:13;;;;;;;10.90;2.78;;;;;;;15.68;47.65;100506.75;4972893;28;100750;-92
2022/05/14 02:06:39;;;;;;;9.05;2.10;;;;;;;15.77;47.06;100510.69;4988526;28;101013;-90
2022/05/14 02:09:08;;;;;;;12.35;2.83;;;;;;;15.72;47.13;100510.09;4994248;28;96624;-90
2022/05/14 02:11:34;;;;;;;6.15;2.40;;;;;;;15.53;47.72;100510.13;4960463;28;96832;-91
2022/05/14 02:14:23;;;;;;;7.75;3.15;;;;;;;15.32;47.52;100473.28;4983455;28;98658;-92
2022/05/14 02:16:48;;;;;;;7.90;2.55;;;;;;;15.24;47.59;100464.91;4956492;28;101015;-90
2022/05/14 02:19:17;;;;;;;4.70;2.60;;;;;;;15.50;47.65;100502.34;4965892;28;96862;-91
2022/05/14 02:21:42;;;;;;;8.38;2.30;;;;;;;15.34;47.77;100486.44;4973350;28;96841;-91
2022/05/14 02:24:10;;;;;;;8.82;2.30;;;;;;;15.38;47.54;100507.34;4972876;28;101791;-90
2022/05/14 02:26:36;;;;;;;6.95;2.25;;;;;;;15.47;47.90;100508.66;4992698;28;99841;-93
2022/05/14 02:29:02;;;;;;;6.63;1.90;;;;;;;15.46;47.95;100501.66;4973299;28;96867;-91
2022/05/14 02:31:27;;;;;;;9.02;2.47;;;;;;;15.45;47.45;100484.09;4992969;28;96732;-89
2022/05/14 02:33:53;;;;;;;7.07;2.42;;;;;;;15.43;47.44;100490.41;4960072;28;101352;-89
2022/05/14 02:36:20;;;;;;;4.25;1.90;;;;;;;15.33;47.39;100474.13;4959215;28;101239;-90
2022/05/14 02:38:46;;;;;;;7.38;2.00;;;;;;;15.38;47.58;100491.47;4972973;28;96717;-90
2022/05/14 02:41:13;;;;;;;5.95;1.70;;;;;;;15.37;47.82;100500.34;4992072;28;96997;-91
2022/05/14 02:43:39;;;;;;;6.22;2.20;;;;;;;15.36;47.75;100500.44;4973327;28;100298;-90
2022/05/14 02:46:05;;;;;;;11.30;2.67;;;;;;;15.15;48.14;100482.09;4972338;28;101163;-91
2022/05/14 02:48:31;;;;;;;6.93;2.40;;;;;;;15.17;48.27;100492.56;4992358;28;96650;-91
2022/05/14 02:50:58;;;;;;;8.30;2.30;;;;;;;15.27;48.08;100487.66;4973084;28;96991;-90
2022/05/14 02:53:24;;;;;;;8.27;2.58;;;;;;;15.22;48.13;100487.91;4965972;28;101278;-91
2022/05/14 02:55:50;;;;;;;5.78;2.35;;;;;;;15.14;48.69;100488.28;4973320;28;99479;-91
2022/05/14 02:59:06;;;;;;;8.15;1.83;;;;;;;15.03;48.75;100472.09;4973072;28;97184;-91
2022/05/14 03:01:00;;;;;;;5.25;2.20;;;;;;;15.13;48.63;100491.03;4978573;28;97236;-91
2022/05/14 03:03:26;;;;;;;7.47;2.55;;;;;;;15.10;48.76;100491.19;4958047;28;101359;-88
2022/05/14 03:05:52;;;;;;;7.03;2.10;;;;;;;14.91;48.79;100446.28;4992516;28;101572;-91
2022/05/14 03:08:18;;;;;;;8.98;2.42;;;;;;;15.18;48.54;100488.97;4958641;28;96882;-92
2022/05/14 03:10:43;;;;;;;7.30;2.72;;;;;;;15.22;48.29;100481.78;4973086;28;96933;-91
2022/05/14 03:13:09;;;;;;;7.15;2.00;;;;;;;15.08;48.58;100463.94;4975137;28;98593;-91
2022/05/14 03:15:34;;;;;;;5.22;2.20;;;;;;;15.14;48.79;100484.78;4991869;28;98216;-91
2022/05/14 03:18:00;;;;;;;10.73;2.50;;;;;;;15.26;48.14;100483.31;4992718;28;97253;-91
2022/05/14 03:20:26;;;;;;;6.18;2.10;;;;;;;15.26;48.33;100484.16;4975892;28;97647;-87
2022/05/14 03:22:52;;;;;;;8.85;2.28;;;;;;;15.11;48.34;100447.94;4974768;28;101328;-91
2022/05/14 03:25:18;;;;;;;5.28;2.42;;;;;;;15.38;48.16;100483.53;4961940;28;101349;-91
2022/05/14 03:27:43;;;;;;;4.40;1.80;;;;;;;15.33;48.17;100479.41;4995909;28;96733;-91
2022/05/14 03:30:09;;;;;;;7.45;2.00;;;;;;;15.34;48.29;100487.28;4963055;28;96959;-90
2022/05/14 03:32:35;;;;;;;6.20;2.10;;;;;;;15.35;48.35;100488.13;4977824;28;101276;-91
2022/05/14 03:35:02;;;;;;;9.23;2.08;;;;;;;15.46;48.07;100480.50;4978891;28;99612;-92
2022/05/14 03:37:28;;;;;;;4.78;2.35;;;;;;;15.39;48.39;100474.69;4961904;28;96620;-90
2022/05/14 03:39:53;;;;;;;10.27;2.72;;;;;;;15.40;48.49;100489.59;4962855;28;96874;-91
2022/05/14 03:42:19;;;;;;;7.97;2.08;;;;;;;15.45;48.84;100481.44;4977884;28;98509;-91
2022/05/14 03:44:48;;;;;;;9.75;2.63;;;;;;;15.53;48.34;100487.19;4969551;28;101107;-91
2022/05/14 03:47:14;;;;;;;7.93;2.28;;;;;;;15.58;48.32;100492.25;4975011;28;96807;-90
2022/05/14 03:49:40;;;;;;;8.60;2.42;;;;;;;15.73;47.74;100498.53;4962785;28;97131;-91
2022/05/14 03:52:06;;;;;;;7.47;2.50;;;;;;;15.78;47.56;100483.28;4994327;28;98210;-91
2022/05/14 03:54:32;;;;;;;5.18;2.20;;;;;;;15.75;47.86;100494.88;4995097;28;97732;-92
2022/05/14 03:56:57;;;;;;;8.98;2.30;;;;;;;15.61;48.01;100473.56;4995619;28;96872;-90
2022/05/14 03:59:23;;;;;;;11.20;3.38;;;;;;;15.81;47.91;100491.06;4995194;28;96924;-91
2022/05/14 04:01:48;;;;;;;4.70;2.92;;;;;;;15.89;47.79;100502.09;4960517;28;101054;-91
2022/05/14 04:04:14;;;;;;;7.72;2.67;;;;;;;15.81;48.03;100499.00;4994866;28;97361;-90
2022/05/14 04:06:40;;;;;;;5.22;2.20;;;;;;;15.85;48.12;100505.84;4961775;28;96962;-91
2022/05/14 04:09:05;;;;;;;7.10;2.30;;;;;;;15.95;47.63;100509.72;4989195;28;96847;-86
2022/05/14 04:11:32;;;;;;;4.90;2.13;;;;;;;15.95;47.85;100508.88;5006960;28;100140;-92
2022/05/14 04:13:58;;;;;;;4.82;2.00;;;;;;;15.89;47.49;100488.03;4994861;28;97877;-91
2022/05/14 04:16:23;;;;;;;9.85;2.65;;;;;;;16.05;47.22;100502.13;4994439;28;96675;-93
2022/05/14 04:18:49;;;;;;;6.32;2.33;;;;;;;16.13;47.36;100494.63;4974752;28;96548;-93
2022/05/14 04:21:14;;;;;;;6.30;1.65;;;;;;;16.26;46.98;100497.44;5006627;28;101668;-91
2022/05/14 04:23:40;;;;;;;5.55;2.30;;;;;;;16.23;46.89;100473.78;4958669;28;101375;-93
2022/05/14 04:26:06;;;;;;;4.53;1.75;;;;;;;16.59;46.84;100505.34;4965677;28;97247;-92
2022/05/14 04:28:32;;;;;;;6.38;2.20;;;;;;;16.78;46.19;100496.38;4977957;28;96890;-88
2022/05/14 04:30:59;;;;;;;8.45;2.08;;;;;;;16.85;46.04;100506.56;4976977;28;101480;-91
2022/05/14 04:33:26;;;;;;;5.88;1.90;;;;;;;16.98;45.76;100498.72;4958617;28;101038;-89
2022/05/14 04:35:52;;;;;;;7.32;2.25;;;;;;;17.12;45.94;100500.59;4964445;28;96831;-91
2022/05/14 04:38:18;;;;;;;6.60;1.55;;;;;;;17.26;45.17;100505.09;4974684;28;96785;-92
2022/05/14 04:40:44;;;;;;;6.15;1.80;;;;;;;17.41;44.88;100489.09;4993826;28;99288;-92
2022/05/14 04:43:11;;;;;;;6.15;2.15;;;;;;;17.64;44.92;100484.22;4960936;28;100775;-92
2022/05/14 04:45:38;;;;;;;6.82;1.90;;;;;;;17.77;44.45;100465.72;4961311;28;96736;-92
2022/05/14 04:48:05;;;;;;;8.43;2.25;;;;;;;18.05;43.94;100486.16;4978918;28;96883;-91
2022/05/14 04:50:31;;;;;;;5.50;1.70;;;;;;;18.17;43.50;100482.72;4976961;28;101296;-91
2022/05/14 04:52:56;;;;;;;6.78;2.08;;;;;;;18.57;42.94;100489.97;4993703;28;98605;-91
2022/05/14 04:55:24;;;;;;;6.55;1.80;;;;;;;18.57;42.43;100420.84;4958547;28;96663;-92
2022/05/14 04:57:49;;;;;;;9.60;1.83;;;;;;;18.93;42.11;100466.28;4966286;28;96869;-92
2022/05/14 05:00:16;;;;;;;5.43;1.95;;;;;;;19.23;41.87;100475.84;4994866;28;98560;-89
2022/05/14 05:05:29;;;;;;;8.63;1.63;;;;;;;19.70;41.05;100471.75;4966584;28;96690;-91
2022/05/14 05:07:55;;;;;;;8.30;1.67;;;;;;;20.05;40.53;100468.44;4994236;28;96786;-91
2022/05/14 05:10:22;;;;;;;5.82;1.85;;;;;;;20.13;40.20;100474.91;4970233;28;101546;-91
2022/05/14 05:12:48;;;;;;;8.43;1.95;;;;;;;20.32;39.61;100454.94;4987261;28;98030;-90
2022/05/14 05:15:13;;;;;;;6.05;1.70;;;;;;;20.74;39.41;100480.31;4994689;28;96737;-90
2022/05/14 05:17:39;;;;;;;5.82;1.60;;;;;;;20.97;39.03;100489.25;4958923;28;96904;-90
2022/05/14 05:20:05;;;;;;;3.45;1.40;;;;;;;21.22;38.73;100487.41;4987524;28;98395;-92
2022/05/14 05:22:32;;;;;;;4.65;1.27;;;;;;;21.38;38.32;100490.66;4970656;28;98286;-88
2022/05/14 05:24:57;;;;;;;9.90;2.00;;;;;;;21.82;37.81;100467.66;4957786;28;96727;-91
2022/05/14 05:27:23;;;;;;;4.40;1.52;;;;;;;22.10;37.07;100474.28;4967372;28;96754;-90
2022/05/14 05:29:48;;;;;;;4.40;1.55;;;;;;;22.60;36.52;100485.47;4973836;28;100989;-91
2022/05/14 05:32:15;;;;;;;4.47;1.67;;;;;;;23.10;35.76;100489.47;4986857;28;97149;-90
2022/05/14 05:34:40;;;;;;;5.47;1.75;;;;;;;23.88;34.55;100496.16;4993861;28;96734;-91
2022/05/14 05:37:06;;;;;;;3.47;1.67;;;;;;;24.75;33.28;100496.47;4995267;28;97221;-91
2022/05/14 05:39:32;;;;;;;5.53;1.80;;;;;;;25.50;32.15;100496.75;4993246;28;98482;-92
2022/05/14 05:41:58;;;;;;;8.85;1.95;;;;;;;26.00;31.04;100476.84;4973203;28;101104;-91
2022/05/14 05:44:25;;;;;;;3.38;1.48;;;;;;;27.16;29.87;100497.66;4980428;28;96760;-91
2022/05/14 05:46:51;;;;;;;6.90;1.80;;;;;;;27.64;28.85;100482.88;4994995;28;97070;-90
2022/05/14 05:49:17;;;;;;;8.70;1.90;;;;;;;26.68;29.98;100482.72;4993470;28;98612;-91
2022/05/14 05:51:42;;;;;;;5.53;1.50;;;;;;;26.22;30.26;100486.38;4972564;28;101273;-91
2022/05/14 05:56:57;;;;;;;3.60;1.40;;;;;;;28.38;28.04;100496.75;4994216;28;96792;-91
2022/05/14 05:59:23;;;;;;;;;;;;;;;26.20;30.59;100494.56;4974412;28;98634;-91
2022/05/14 06:01:51;;;;;;;4.05;1.40;;;;;;;24.83;31.84;100493.09;4992846;28;97912;-91
2022/05/14 06:04:16;;;;;;;5.03;1.63;;;;;;;24.18;32.88;100501.53;4967860;28;96741;-92
2022/05/14 06:06:42;;;;;;;5.35;1.20;;;;;;;23.65;33.73;100504.34;4993557;28;96925;-91
2022/05/14 06:09:16;;;;;;;6.32;2.35;;;;;;;23.39;34.14;100500.38;4993522;28;98012;-91
2022/05/14 06:11:42;;;;;;;7.82;1.88;;;;;;;23.11;34.86;100504.53;4959366;28;100378;-92
2022/05/14 06:14:09;;;;;;;4.95;1.45;;;;;;;23.42;34.58;100505.47;4977012;28;96593;-91
2022/05/14 06:16:34;;;;;;;3.85;1.75;;;;;;;23.85;33.75;100509.84;4992977;28;98456;-91
2022/05/14 06:19:00;;;;;;;7.28;2.13;;;;;;;23.15;34.94;100516.66;4976445;28;97968;-91
2022/05/14 06:21:27;;;;;;;3.28;1.20;;;;;;;22.88;35.35;100519.78;4991975;28;97747;-88
2022/05/14 06:23:54;;;;;;;5.30;1.60;;;;;;;24.59;32.95;100521.16;4974040;28;96792;-92
2022/05/14 06:26:19;;;;;;;4.75;1.80;;;;;;;23.52;34.39;100518.94;4991320;28;97392;-91
2022/05/14 06:28:45;;;;;;;2.72;1.20;;;;;;;23.73;34.25;100517.94;4993963;28;98207;-92
2022/05/14 06:31:11;;;;;;;4.70;1.70;;;;;;;24.00;33.66;100503.16;4975998;28;97195;-93
2022/05/14 06:33:37;;;;;;;9.30;1.80;;;;;;;25.10;32.28;100523.75;4992690;28;96754;-92
2022/05/14 06:36:02;;;;;;;5.75;1.48;;;;;;;23.92;33.91;100521.75;4993523;28;96794;-88
2022/05/14 06:38:28;;;;;;;7.65;1.85;;;;;;;27.39;29.43;100503.41;4992444;28;97520;-91
2022/05/14 06:40:54;;;;;;;3.17;1.70;;;;;;;29.80;26.98;100518.22;4992091;28;97865;-91
2022/05/14 06:43:19;;;;;;;3.08;1.77;;;;;;;30.83;25.29;100514.59;4976182;28;96783;-91
2022/05/14 06:45:45;;;;;;;5.15;2.20;;;;;;;31.61;24.61;100509.94;4956037;28;96978;-91
2022/05/14 06:48:11;;;;;;;5.13;1.83;;;;;;;32.59;24.12;100501.50;4982932;28;98107;-90
2022/05/14 06:50:41;;;;;;;4.95;1.60;;;;;;;33.49;23.01;100505.53;4980123;28;97831;-91
2022/05/14 06:53:07;;;;;;;3.53;1.50;;;;;;;33.24;23.18;100499.66;4957883;28;96873;-91
2022/05/14 06:55:36;;;;;;;4.72;1.42;;;;;;;33.96;22.90;100500.41;4975027;28;97048;-90
2022/05/14 06:58:02;;;;;;;3.70;1.40;;;;;;;31.86;24.03;100492.38;4991913;28;98559;-92
2022/05/14 07:00:27;;;;;;;6.07;1.67;;;;;;;30.38;25.84;100495.38;4995270;28;97505;-91
2022/05/14 07:06:37;;;;;;;4.50;1.95;;;;;;;30.82;25.44;100496.66;4978803;28;96794;-92
2022/05/14 07:08:23;;;;;;;4.15;1.67;;;;;;;29.95;26.68;100485.88;4980231;28;97462;-90
2022/05/14 07:10:48;;;;;;;8.45;2.10;;;;;;;31.58;24.94;100481.31;4975464;28;97465;-94
2022/05/14 07:13:14;;;;;;;5.28;2.13;;;;;;;33.42;23.03;100480.13;4979547;28;96825;-85
2022/05/14 07:15:39;;;;;;;6.53;2.17;;;;;;;34.54;21.83;100473.66;4995105;28;96977;-87
2022/05/14 07:18:05;;;;;;;3.50;1.67;;;;;;;35.71;20.94;100469.56;4977127;28;101196;-86
2022/05/14 07:20:31;;;;;;;4.10;1.83;;;;;;;36.05;20.59;100473.09;4993699;28;97921;-86
2022/05/14 07:22:56;;;;;;;4.70;2.00;;;;;;;36.32;20.56;100468.34;4977233;28;96664;-85
2022/05/14 07:25:22;;;;;;;5.47;2.08;;;;;;;36.65;20.10;100473.66;4994571;28;96816;-83
2022/05/14 07:27:47;;;;;;;7.43;2.22;;;;;;;36.22;20.05;100467.97;4987940;28;98051;-84
2022/05/14 07:30:13;;;;;;;6.47;2.30;;;;;;;35.39;20.73;100454.91;4987171;28;97797;-84
2022/05/14 07:32:38;;;;;;;4.03;1.30;;;;;;;36.36;21.21;100450.44;4979545;28;97671;-80
2022/05/14 07:35:05;;;;;;;4.45;2.33;;;;;;;35.24;21.11;100454.31;4979025;28;96838;-82
2022/05/14 07:37:33;;;;;;;4.65;1.92;;;;;;;35.93;20.37;100461.97;4978595;28;97428;-82
2022/05/14 07:40:03;;;;;;;4.50;1.92;;;;;;;33.92;21.79;100453.72;4964194;28;98508;-81
2022/05/14 07:42:31;;;;;;;7.75;2.53;;;;;;;32.00;22.68;100445.41;4972757;28;96845;-80
2022/05/14 07:44:59;;;;;;;3.93;1.90;;;;;;;30.96;23.89;100457.13;4982663;28;96877;-79
2022/05/14 07:47:26;;;;;;;5.78;1.70;;;;;;;30.08;24.13;100448.28;4974849;28;97541;-81
2022/05/14 07:49:52;;;;;;;7.75;1.90;;;;;;;29.41;25.26;100455.88;4972973;28;102133;-79
2022/05/14 07:52:19;;;;;;;3.47;1.88;;;;;;;29.58;25.08;100464.81;4987226;28;96924;-82
2022/05/14 07:54:45;;;;;;;5.88;2.92;;;;;;;33.65;21.97;100455.41;4985996;28;97124;-82
2022/05/14 07:57:10;;;;;;;8.00;2.67;;;;;;;32.23;22.62;100452.56;4974364;28;97521;-82
2022/05/14 07:59:36;;;;;;;7.20;2.05;;;;;;;32.40;22.72;100461.34;4967302;28;100845;-82
2022/05/14 08:02:05;;;;;;;5.55;2.38;;;;;;;34.56;20.57;100441.66;4955715;28;96882;-83
2022/05/14 08:04:32;;;;;;;5.97;2.30;;;;;;;35.26;20.49;100453.03;4971092;28;98244;-75
2022/05/14 08:06:58;;;;;;;5.88;2.83;;;;;;;35.89;20.53;100449.78;4973005;28;98049;-75
2022/05/14 08:09:23;;;;;;;5.70;2.40;;;;;;;31.56;23.22;100448.09;4989371;28;101462;-77
2022/05/14 08:11:50;;;;;;;8.20;2.20;;;;;;;32.68;22.61;100458.75;4987594;28;97270;-74
2022/05/14 08:14:15;;;;;;;5.63;2.00;;;;;;;31.65;23.45;100435.28;4991298;28;97475;-79
2022/05/14 08:16:41;;;;;;;6.53;2.55;;;;;;;34.09;21.26;100446.03;4959988;28;100942;-83
2022/05/14 08:19:06;;;;;;;5.53;2.28;;;;;;;34.88;20.44;100441.91;4975153;28;101740;-79
2022/05/14 08:24:30;;;;;;;4.38;2.15;;;;;;;35.51;20.34;100434.09;4956323;28;96971;-80
2022/05/14 08:26:56;;;;;;;6.70;2.58;;;;;;;35.48;19.54;100450.91;4960419;28;101105;-79
2022/05/14 08:29:22;;;;;;;7.38;2.45;;;;;;;35.96;19.34;100447.88;4990860;28;100953;-79
2022/05/14 08:31:48;;;;;;;4.18;1.92;;;;;;;36.67;18.48;100432.44;5001326;28;96708;-79
2022/05/14 08:34:16;;;;;;;6.53;2.28;;;;;;;36.77;18.58;100441.00;4974853;28;97326;-78
2022/05/14 08:36:42;;;;;;;7.80;2.80;;;;;;;37.27;18.62;100435.53;4955047;28;101569;-79
2022/05/14 08:39:09;;;;;;;7.72;2.63;;;;;;;37.25;18.24;100434.94;4973936;28;97316;-85
2022/05/14 08:41:38;;;;;;;3.78;1.88;;;;;;;37.65;18.03;100444.69;4976282;28;97270;-85
2022/05/14 08:44:07;;;;;;;7.45;2.65;;;;;;;38.03;17.90;100436.25;4962527;28;96777;-84
2022/05/14 08:46:33;;;;;;;8.05;2.67;;;;;;;37.26;18.15;100422.91;4975587;28;97777;-83
2022/05/14 08:49:07;;;;;;;6.72;2.13;;;;;;;35.73;19.45;100439.34;4970257;28;97584;-84
2022/05/14 08:51:34;;;;;;;9.20;2.85;;;;;;;35.03;19.71;100430.78;4971537;28;97400;-84
2022/05/14 08:54:00;;;;;;;8.18;3.03;;;;;;;35.44;20.05;100427.00;4969545;28;96953;-80
2022/05/14 08:56:52;;;;;;;6.85;2.03;;;;;;;34.61;20.72;100435.56;4959104;28;101760;-79
2022/05/14 08:59:35;;;;;;;8.50;2.90;;;;;;;35.12;20.17;100435.00;4978197;28;97649;-89
2022/05/14 09:02:10;;;;;;;6.95;2.55;;;;;;;35.60;19.71;100435.56;4990782;28;97282;-88
2022/05/14 09:04:36;;;;;;;9.13;2.72;;;;;;;34.57;20.68;100437.84;4978150;28;96963;-88
2022/05/14 09:07:02;;;;;;;6.40;2.47;;;;;;;33.71;20.73;100432.84;4959215;28;99389;-80
2022/05/14 09:09:27;;;;;;;9.27;2.63;;;;;;;32.54;22.12;100440.63;4955102;28;101996;-82
2022/05/14 09:11:59;;;;;;;7.47;2.40;;;;;;;32.27;22.43;100442.19;4970584;28;98808;-80
2022/05/14 09:14:34;;;;;;;7.25;1.88;;;;;;;31.85;23.00;100449.13;4974810;28;97108;-80
2022/05/14 09:17:05;;;;;;;12.35;3.25;;;;;;;33.79;21.31;100451.75;4969188;28;101866;-83
2022/05/14 09:19:39;;;;;;;7.55;3.08;;;;;;;32.74;22.09;100425.38;4971681;28;98452;-87
2022/05/14 09:22:22;;;;;;;9.75;2.65;;;;;;;32.27;22.43;100440.31;4974392;28;97397;-87
2022/05/14 09:24:54;;;;;;;5.15;2.20;;;;;;;31.25;23.64;100442.78;5005537;28;96686;-88
2022/05/14 09:27:24;;;;;;;5.75;2.55;;;;;;;31.54;23.33;100433.88;4983294;28;97940;-89
2022/05/14 09:29:53;;;;;;;5.88;2.22;;;;;;;30.66;24.11;100432.56;4973866;28;102920;-89
2022/05/14 09:32:22;;;;;;;7.93;2.22;;;;;;;30.23;24.89;100432.16;4957416;28;97372;-90
2022/05/14 09:34:48;;;;;;;5.00;2.33;;;;;;;29.29;25.88;100441.84;4975093;28;97180;-85
2022/05/14 09:37:21;;;;;;;6.65;2.25;;;;;;;28.60;26.73;100435.94;4936580;28;101251;-85
2022/05/14 09:39:57;;;;;;;11.40;2.40;;;;;;;28.60;26.39;100444.88;4986309;28;97378;-90
2022/05/14 09:42:31;;;;;;;7.60;3.08;;;;;;;29.65;25.54;100431.53;4973987;28;96854;-88
2022/05/14 09:44:57;;;;;;;10.45;2.47;;;;;;;31.31;24.10;100429.34;4986514;28;97328;-88
2022/05/14 09:47:31;;;;;;;5.30;2.40;;;;;;;32.23;23.02;100425.41;4990633;28;97565;-88
2022/05/14 09:50:00;;;;;;;9.80;2.53;;;;;;;31.90;23.57;100412.28;4991597;28;98345;-89
2022/05/14 09:52:29;;;;;;;6.88;2.42;;;;;;;32.43;22.61;100422.91;4973422;28;96851;-85
2022/05/14 09:54:55;;;;;;;6.95;2.35;;;;;;;32.68;22.68;100415.28;4983314;28;97041;-91
2022/05/14 09:57:45;;;;;;;6.10;2.15;;;;;;;31.58;23.89;100418.91;4995805;28;98075;-90
2022/05/14 10:00:27;;;;;;;4.80;2.05;;;;;;;30.32;25.01;100401.31;4991192;28;97266;-92
2022/05/14 10:03:14;;;;;;;10.73;2.00;;;;;;;31.54;23.77;100410.31;4990964;28;97284;-90
2022/05/14 10:05:52;;;;;;;6.70;2.97;;;;;;;31.65;23.59;100419.00;4979925;28;96968;-91
2022/05/14 10:08:43;;;;;;;5.53;1.83;;;;;;;30.47;24.68;100428.47;4977820;28;101058;-90
2022/05/14 10:11:29;;;;;;;10.15;2.75;;;;;;;29.47;25.40;100420.91;4969385;28;100330;-90
2022/05/14 10:14:13;;;;;;;5.20;2.72;;;;;;;30.15;24.84;100410.53;4968257;28;97099;-83
2022/05/14 10:16:45;;;;;;;7.38;3.03;;;;;;;30.32;24.32;100419.44;4986271;28;96901;-83
2022/05/14 10:19:29;;;;;;;7.85;2.45;;;;;;;29.49;25.43;100404.47;4988160;28;97514;-83
2022/05/14 10:22:20;;;;;;;5.18;2.15;;;;;;;28.75;25.98;100404.53;4986691;28;101207;-83
2022/05/14 10:28:00;;;;;;;7.18;2.00;;;;;;;28.18;27.10;100417.91;4988190;28;96734;-80
2022/05/14 10:30:43;;;;;;;5.38;1.90;;;;;;;28.29;27.03;100390.63;4983050;28;101679;-79
2022/05/14 10:33:17;;;;;;;7.97;2.30;;;;;;;28.64;27.22;100408.41;4966942;28;101324;-78
2022/05/14 10:35:49;;;;;;;9.65;2.17;;;;;;;28.66;27.04;100392.06;4985750;28;97270;-78
2022/05/14 10:38:19;;;;;;;7.22;2.60;;;;;;;29.04;26.59;100395.13;4985175;28;96843;-78
2022/05/14 10:40:48;;;;;;;7.43;2.97;;;;;;;28.66;26.91;100410.97;4977768;28;97779;-79
2022/05/14 10:43:16;;;;;;;8.70;2.58;;;;;;;28.64;26.61;100412.97;4972392;28;98383;-79
2022/05/14 10:45:46;;;;;;;9.45;2.55;;;;;;;28.48;26.98;100404.84;4972938;28;96828;-78
2022/05/14 10:48:12;;;;;;;6.43;2.50;;;;;;;28.21;27.49;100399.53;4974577;28;96880;-78
2022/05/14 10:50:39;;;;;;;9.45;2.60;;;;;;;28.14;27.52;100405.75;4972873;28;101568;-78
2022/05/14 10:53:07;;;;;;;7.82;2.17;;;;;;;27.68;28.10;100400.66;4974614;28;98497;-78
2022/05/14 10:56:02;;;;;;;7.38;2.42;;;;;;;27.59;28.26;100404.31;4989636;28;97975;-79
2022/05/14 10:58:47;;;;;;;9.02;2.75;;;;;;;27.12;28.31;100388.50;4957935;28;96750;-79
2022/05/14 11:01:36;;;;;;;5.25;2.60;;;;;;;27.30;28.67;100404.66;4975904;28;101626;-80
2022/05/14 11:04:19;;;;;;;7.03;2.83;;;;;;;27.28;28.90;100395.88;4991612;28;97523;-78
2022/05/14 11:07:04;;;;;;;7.05;2.30;;;;;;;27.44;28.42;100404.06;4972349;28;96835;-78
2022/05/14 11:09:44;;;;;;;11.60;3.05;;;;;;;27.09;29.20;100386.13;4958017;28;96967;-78
2022/05/14 11:12:18;;;;;;;12.13;3.30;;;;;;;27.20;28.95;100393.13;4956336;28;101864;-78
2022/05/14 11:14:49;;;;;;;6.50;2.22;;;;;;;27.36;29.14;100371.66;4974069;28;101508;-78
2022/05/14 11:17:29;;;;;;;7.45;2.17;;;;;;;27.47;29.07;100365.16;4954208;28;96918;-78
2022/05/14 11:20:04;;;;;;;8.80;2.92;;;;;;;27.54;28.66;100387.78;4973813;28;96781;-79
2022/05/14 11:22:45;;;;;;;5.78;2.40;;;;;;;27.18;28.82;100376.28;4988922;28;101464;-79
2022/05/14 11:25:22;;;;;;;7.07;2.33;;;;;;;27.23;28.81;100390.97;4990289;28;97299;-78
2022/05/14 11:27:57;;;;;;;9.48;2.75;;;;;;;27.22;28.30;100383.03;4970128;28;96788;-79
2022/05/14 11:30:34;;;;;;;6.93;2.15;;;;;;;27.09;28.53;100391.50;4981959;28;97021;-79
2022/05/14 11:33:02;;;;;;;9.30;2.42;;;;;;;26.67;29.20;100381.41;4977250;28;98062;-87
2022/05/14 11:35:39;;;;;;;5.67;2.50;;;;;;;26.33;29.80;100390.16;4957765;28;101857;-91
2022/05/14 11:38:13;;;;;;;7.47;2.22;;;;;;;26.22;29.81;100386.84;4958101;28;96894;-77
2022/05/14 11:40:39;;;;;;;14.07;4.50;;;;;;;26.11;30.08;100390.56;4985015;28;97264;-79
2022/05/14 11:43:30;;;;;;;11.52;2.95;;;;;;;25.86;30.52;100387.59;4970068;28;97583;-79
2022/05/14 11:46:11;;;;;;;6.90;3.78;;;;;;;26.23;29.48;100401.97;4988077;28;101015;-79
2022/05/14 11:49:06;;;;;;;8.85;4.03;;;;;;;26.22;29.33;100389.53;4986975;28;96830;-79
2022/05/14 11:52:09;;;;;;;10.35;2.45;;;;;;;26.02;29.39;100394.16;4975036;28;97319;-79